This is the latest recevied weather packets stored in our database for station/object ED4YAF-13. If no packets are shown the sender has not sent any weather packets the latest 10 day(s).
| Time | Temp. | Humidity | Pressure | Rain* | Wind** | Luminosity | Snow |
|---|---|---|---|---|---|---|---|
| 1788595072 | 22.78° C | 28% | 1019.3 hPa | - | - | - | - |
| 1788594155 | 22.78° C | 29% | 1019.4 hPa | - | - | - | - |
| 1788593247 | 22.22° C | 29% | 1019.7 hPa | - | - | - | - |
| 1788592347 | 22.22° C | 29% | 1019.6 hPa | - | - | - | - |
| 1788591447 | 21.67° C | 30% | 1019.8 hPa | - | - | - | - |
| 1788589714 | 20.56° C | 32% | 1020.3 hPa | - | - | - | - |
| 1788588814 | 20.56° C | 33% | 1020.5 hPa | - | - | - | - |
| 1788587919 | 20° C | 32% | 1020.4 hPa | - | - | - | - |
| 1788587014 | 20° C | 32% | 1020.4 hPa | - | - | - | - |
| 1788586119 | 20° C | 32% | 1020.3 hPa | - | - | - | - |
| 1788584297 | 20° C | 31% | 1020.2 hPa | - | - | - | - |
| 1788583397 | 20° C | 31% | 1020.2 hPa | - | - | - | - |
| 1788581588 | 20° C | 32% | 1020.6 hPa | - | - | - | - |
| 1788580732 | 20° C | 32% | 1020.4 hPa | - | - | - | - |
| 1788580680 | 20° C | 32% | 1020.4 hPa | - | - | - | - |
| 1788579780 | 20° C | 32% | 1020.4 hPa | - | - | - | - |
| 1788578879 | 20° C | 33% | 1020.5 hPa | - | - | - | - |
| 1788577976 | 20° C | 34% | 1020.4 hPa | - | - | - | - |
| 1788577073 | 20.56° C | 33% | 1020.4 hPa | - | - | - | - |
| 1788576167 | 20.56° C | 32% | 1020.4 hPa | - | - | - | - |
| 1788575267 | 20.56° C | 33% | 1020.4 hPa | - | - | - | - |
| 1788574367 | 20.56° C | 33% | 1020.3 hPa | - | - | - | - |
| 1788573467 | 20.56° C | 33% | 1020.2 hPa | - | - | - | - |
| 1788572552 | 20.56° C | 33% | 1020.3 hPa | - | - | - | - |
| 1788571652 | 20.56° C | 32% | 1020.2 hPa | - | - | - | - |
* Rain since midnight (hover to see other rain measurements)
** Current wind speed in m/s (hover to see current wind gust speed)